Local

EHAM

EHAM 220855Z 12009KT 100V160 CAVOK 19/10 Q1008 NOSIG

EHAM

TAF EHAM 220514Z 2206/2312 11009KT CAVOK BECMG 2208/2211 16011KT BECMG 2216/2218 13005KT BECMG 2219/2222 25012KT PROB40 TEMPO 2219/2303 27015G25KT 4000 SHRA RA BKN012 SCT030CB BECMG 2300/2303 21007KT 5000 BR SCT008 BKN012 BECMG 2309/2312 24012KT 9999 NSW SCT018

METAR Cross-country

EHKD

EHKD 220904Z AUTO 11010KT 9999 OVC300 19/11 Q1008 BLU

EHGG

EHGG 220855Z AUTO 11005KT 070V190 9999 NCD 18/10 Q1010 NOSIG

EDLW

EHLW 220855Z AUTO 13007KT 090V160 9999 OVC360 18/10 Q1009 BLU

EDDW

EDDW 220850Z 12007KT 070V150 CAVOK 18/09 Q1012 NOSIG

EHRD

EHRD 220855Z AUTO 14007KT 100V180 9999 NCD 19/10 Q1007 NOSIG

EHDL

EHDL 220855Z AUTO 13007KT 060V210 9999 BKN350 19/10 Q1009 BLU

EHEH

EHEH 220855Z AUTO 13006KT 100V200 9999 OVC260 21/09 Q1008 BLU 14008KT CAVOK

EBAW

EBAW 220850Z 16009KT CAVOK 22/11 Q1007 NOSIG

EHBK

EHBK 220855Z AUTO 19008KT 9999 NSC 24/12 Q1009 NOSIG

TAF Cross-country

EHKD

TAF TAF EHKD 220455Z 2205/2217 13010KT CAVOK

EHGG

TAF EHGG 220521Z 2206/2312 11008KT CAVOK BECMG 2223/2302 24010KT TEMPO 2302/2310 6000 RA SCT008 BKN012 PROB30 TEMPO 2302/2309 4000 BKN006 BECMG 2310/2312 BKN012

EDDW

TAF EDDW 220500Z 2206/2306 11007KT CAVOK

EHRD

TAF EHRD 220514Z 2206/2312 12007KT CAVOK BECMG 2207/2210 15011KT BECMG 2216/2218 13005KT BECMG 2218/2220 25012KT PROB40 TEMPO 2218/2223 27015G30KT 4000 SHRA RA SCT008 BKN012 SCT030CB BECMG 2223/2302 21005KT 5000 BR SCT008 BKN012 BECMG 2309/2312 24012KT 9999 NSW SCT018

EHEH

TAF TAF EHEH 220520Z 2206/2312 12005KT CAVOK BECMG 2208/2210 15008KT PROB30 TEMPO 2216/2219 20010G20KT 9999 SCT060CB BKN080 BECMG 2218/2220 25008KT TEMPO 2219/2222 19010G20KT 3000 RA TSRA SCT012 BKN020CB OVC028 TEMPO 2222/2303 4500 RA SCT010 OVC050 PROB30 2302/2308 BKN006 BECMG 2310/2312 SCT022

EHBK

TAF EHBK 220521Z 2206/2312 15008KT CAVOK BECMG 2208/2211 18013KT BECMG 2218/2220 26013KT TEMPO 2218/2223 27015G25KT 4000 SHRA RA BKN012 SCT025CB BECMG 2223/2301 23008KT TEMPO 2223/2304 6000 RA BKN012 BECMG 2304/2307 6000 BKN012 BECMG 2308/2310 9999 BKN020

Weerbulletin KNMI

Gebruik deze link voor hoogtewinden en omschrijving weersituatie voor de kleine luchtvaart.

Weerminima

Gebruik deze link voor onze weerminima bij lokale- en overland (Dual en Solo) lesvluchten.

Meest voorkomende afkortingen

code vb uitleg
ddtttt 211525 De dag van de maand met de tijd in UTC
zicht 4000 Zicht op 10 meter hoogte 4000 meter
FG Mist (zicht tussen 0-1000 meter)
BR Nevel (zicht tussen 1000-5000 meter)
DZ Motregen
OVC OVC020 Overcast bewolking (8/8 bedekking) 2000 ft
BKN BKN015 Broken bewolking (5/8-7/8 bedekking) 1500 ft
SCT SCT005 Scattered bewolking(3/8-4/8 bedekking) 500 ft
FEW FEW003 Few bewolking (1/8-2/8 bedekking) 300 ft
CAVOK Clouds And Visibility OKay Zicht meer dan 10 km, Geen CB/TCU’s in de buurt, wolkenbasis hoger dan 5000 ft en geen significant weer.
T/D 08/05 Temperatuur/Dauwpunt
QNH QNH1001 Luchtdruk op zeeniveau van 1001 hPa
RA -RA Matige Regen (+ = zwaar en – = matig)

Verwachte regenval vandaag

6 UTC

12 UTC

18 UTC

Disclaimer: Deze tool helpt bij een veilige vluchtuitvoering en de Pilot In Command blijft verantwoordelijk voor gebruik van de originele en meest actuele bronnen. Refresh deze pagina voor het meest actuele weer.